Time;durP1;ratioP1;P1;durP2;ratioP2;P2;SDS_P1;SDS_P2;PMS_P1;PMS_P2;Temp;Humidity;BMP_temperature;BMP_pressure;BME280_temperature;BME280_humidity;BME280_pressure;Samples;Min_cycle;Max_cycle;Signal;HPM_P1;HPM_P2
2021/12/30 06:05:58;;;;;;;15.73;8.45;;;;;;;3.30;81.34;99779.78;5025229;28;106263;-68
2021/12/30 06:08:23;;;;;;;12.93;7.60;;;;;;;3.32;81.43;99780.47;5025759;28;105969;-68
2021/12/30 06:10:49;;;;;;;16.17;9.73;;;;;;;3.37;81.86;99791.44;5025333;27;106203;-67
2021/12/30 06:13:14;;;;;;;16.55;10.30;;;;;;;3.40;81.92;99793.78;5021802;27;105998;-68
2021/12/30 06:15:39;;;;;;;16.58;9.52;;;;;;;3.42;81.95;99783.13;5024719;27;106176;-68
2021/12/30 06:18:05;;;;;;;17.25;9.82;;;;;;;3.42;81.78;99788.38;5026178;28;106251;-68
2021/12/30 06:20:30;;;;;;;18.67;10.18;;;;;;;3.41;81.98;99803.38;5025858;28;106030;-68
2021/12/30 06:22:56;;;;;;;17.33;10.98;;;;;;;3.39;81.87;99808.75;5024564;28;106105;-68
2021/12/30 06:25:22;;;;;;;18.92;10.52;;;;;;;3.43;81.86;99808.50;5024410;27;105985;-68
2021/12/30 06:27:47;;;;;;;18.35;10.57;;;;;;;3.45;81.82;99802.13;5025132;27;105838;-69
2021/12/30 06:30:13;;;;;;;20.73;11.63;;;;;;;3.50;82.15;99807.84;5024243;27;106137;-68
2021/12/30 06:32:38;;;;;;;19.42;11.68;;;;;;;3.53;82.46;99810.19;5024182;28;105855;-65
2021/12/30 06:35:07;;;;;;;21.58;12.02;;;;;;;3.58;81.86;99815.03;5023670;27;106520;-65
2021/12/30 06:37:33;;;;;;;22.35;12.05;;;;;;;3.60;82.31;99822.84;5024753;27;105874;-68
2021/12/30 06:39:58;;;;;;;18.48;11.35;;;;;;;3.63;82.24;99827.84;5023950;28;105951;-67
2021/12/30 06:42:23;;;;;;;20.42;12.13;;;;;;;3.68;82.24;99834.38;5023581;27;106688;-66
2021/12/30 06:44:49;;;;;;;19.33;11.98;;;;;;;3.73;82.08;99831.31;5024004;27;106283;-67
2021/12/30 06:47:14;;;;;;;18.88;10.73;;;;;;;3.76;82.62;99836.34;5024808;27;106299;-69
2021/12/30 06:49:39;;;;;;;18.35;11.15;;;;;;;3.80;82.47;99835.09;5024252;27;106117;-68
2021/12/30 06:52:07;;;;;;;18.10;11.07;;;;;;;3.82;82.55;99842.88;5024000;27;106103;-69
2021/12/30 06:54:33;;;;;;;22.45;12.55;;;;;;;3.87;82.90;99838.84;5023683;27;106012;-68
2021/12/30 06:57:00;;;;;;;26.83;13.15;;;;;;;3.92;82.78;99840.25;5024362;27;106402;-69
2021/12/30 06:59:30;;;;;;;21.73;12.70;;;;;;;3.92;82.67;99842.88;5024111;27;105953;-66
2021/12/30 07:01:57;;;;;;;24.58;13.57;;;;;;;3.93;82.37;99842.75;5023387;27;106018;-66
2021/12/30 07:04:25;;;;;;;20.45;13.38;;;;;;;3.94;82.44;99847.03;5022999;27;106053;-66
2021/12/30 07:06:50;;;;;;;19.85;12.55;;;;;;;3.96;82.84;99853.00;5024279;27;105849;-67
2021/12/30 07:09:15;;;;;;;25.40;12.98;;;;;;;3.96;82.18;99857.44;5024111;27;106000;-68
2021/12/30 07:11:41;;;;;;;27.00;13.07;;;;;;;3.92;82.42;99853.41;5023517;27;106048;-69
2021/12/30 07:14:06;;;;;;;20.85;12.18;;;;;;;3.95;82.57;99845.22;5023123;27;106180;-67
2021/12/30 07:16:31;;;;;;;19.73;12.48;;;;;;;3.99;82.67;99844.00;5015389;27;106309;-69
2021/12/30 07:18:57;;;;;;;23.42;12.00;;;;;;;4.01;82.50;99852.59;5010447;28;105887;-70
2021/12/30 07:21:22;;;;;;;25.08;13.93;;;;;;;3.96;82.42;99858.28;5009859;28;112159;-66
2021/12/30 07:23:48;;;;;;;20.98;15.40;;;;;;;3.95;82.30;99859.25;5009758;28;105727;-67
2021/12/30 07:26:13;;;;;;;20.67;12.77;;;;;;;3.94;82.69;99852.31;5010693;28;105869;-68
2021/12/30 07:28:38;;;;;;;37.33;13.95;;;;;;;3.95;82.68;99861.91;5010244;28;106199;-65
2021/12/30 07:31:04;;;;;;;22.15;12.70;;;;;;;3.94;82.59;99867.28;5010139;28;105848;-66
2021/12/30 07:33:29;;;;;;;19.88;12.23;;;;;;;3.94;82.85;99864.66;5009726;28;106680;-67
2021/12/30 07:35:55;;;;;;;24.50;12.70;;;;;;;3.94;82.71;99865.50;5011134;28;105913;-66
2021/12/30 07:38:22;;;;;;;20.23;12.68;;;;;;;3.93;82.53;99863.81;5010228;28;106148;-67
2021/12/30 07:40:47;;;;;;;20.85;10.60;;;;;;;3.95;82.35;99875.06;5009686;28;106424;-67
2021/12/30 07:43:13;;;;;;;19.42;11.82;;;;;;;3.98;82.46;99871.34;5009746;28;106116;-69
2021/12/30 07:45:38;;;;;;;21.15;13.50;;;;;;;3.94;82.88;99873.41;5009835;28;106107;-68
2021/12/30 07:48:04;;;;;;;20.65;11.52;;;;;;;3.94;82.77;99876.03;5009454;28;106191;-69
2021/12/30 07:50:29;;;;;;;22.58;12.43;;;;;;;3.94;82.41;99875.19;5009165;28;106259;-68
2021/12/30 07:52:55;;;;;;;23.42;12.93;;;;;;;3.96;82.92;99884.63;5009133;28;106113;-67
2021/12/30 07:55:20;;;;;;;20.90;11.50;;;;;;;3.95;82.74;99887.41;5009911;28;106057;-67
2021/12/30 07:57:46;;;;;;;24.50;13.52;;;;;;;3.97;82.93;99888.13;5009668;28;106006;-66
2021/12/30 08:00:14;;;;;;;24.25;12.57;;;;;;;3.98;82.47;99881.88;5008993;28;105914;-67
2021/12/30 08:02:42;;;;;;;14.82;10.05;;;;;;;4.01;82.89;99887.69;5008856;28;106326;-67
2021/12/30 08:05:12;;;;;;;25.60;13.07;;;;;;;4.02;82.86;99888.56;5009927;28;105965;-67
2021/12/30 08:07:37;;;;;;;24.05;13.82;;;;;;;4.01;82.71;99895.59;5008293;28;105963;-67
2021/12/30 08:10:05;;;;;;;22.17;13.15;;;;;;;4.04;82.92;99890.06;5008037;28;106563;-67
2021/12/30 08:12:31;;;;;;;22.45;12.88;;;;;;;4.06;83.14;99888.13;4988401;28;106406;-69
2021/12/30 08:14:56;;;;;;;26.00;13.60;;;;;;;4.05;82.60;99904.91;4989791;28;105888;-68
2021/12/30 08:17:21;;;;;;;25.23;14.30;;;;;;;4.05;83.02;99899.63;4989341;28;106148;-67
2021/12/30 08:19:47;;;;;;;28.23;13.57;;;;;;;4.05;82.94;99894.38;4952755;27;106433;-67
2021/12/30 08:22:13;;;;;;;26.55;15.25;;;;;;;4.09;83.42;99889.66;4967317;28;106358;-70
2021/12/30 08:24:38;;;;;;;23.13;13.60;;;;;;;4.16;83.13;99906.59;4969625;28;105922;-71
2021/12/30 08:27:04;;;;;;;27.58;15.18;;;;;;;4.20;83.18;99904.53;4968383;28;105897;-68
2021/12/30 08:29:31;;;;;;;26.27;13.93;;;;;;;4.24;83.47;99901.47;4968448;28;106137;-69
2021/12/30 08:31:57;;;;;;;23.95;14.82;;;;;;;4.28;83.33;99902.06;4968514;28;105776;-68
2021/12/30 08:34:23;;;;;;;24.83;14.43;;;;;;;4.29;83.36;99906.38;4969122;28;105862;-68
2021/12/30 08:36:48;;;;;;;28.02;14.23;;;;;;;4.33;83.29;99910.41;4966525;28;106307;-67
2021/12/30 08:39:13;;;;;;;23.80;13.10;;;;;;;4.37;83.53;99906.50;4967020;28;106459;-69
2021/12/30 08:41:39;;;;;;;22.88;12.90;;;;;;;4.43;83.28;99922.75;4967186;28;106295;-69
2021/12/30 08:44:04;;;;;;;22.58;12.85;;;;;;;4.44;83.24;99924.41;4967810;28;107138;-69
2021/12/30 08:46:30;;;;;;;20.45;12.10;;;;;;;4.49;83.35;99919.56;4967530;28;106063;-68
2021/12/30 08:48:59;;;;;;;16.98;11.52;;;;;;;4.51;83.13;99910.53;4964752;28;106531;-68
2021/12/30 08:51:24;;;;;;;19.65;11.60;;;;;;;4.56;83.37;99912.75;4966581;28;106083;-68
2021/12/30 08:53:50;;;;;;;24.83;14.23;;;;;;;4.61;83.47;99914.97;4969110;28;106025;-69
2021/12/30 08:56:17;;;;;;;23.70;14.32;;;;;;;4.61;83.10;99915.81;4969318;28;105823;-68
2021/12/30 08:58:45;;;;;;;28.85;16.40;;;;;;;4.64;83.35;99918.19;4968882;28;106221;-67
2021/12/30 09:01:10;;;;;;;26.98;15.05;;;;;;;4.69;83.45;99918.59;4968402;28;106181;-68
2021/12/30 09:03:36;;;;;;;22.90;14.48;;;;;;;4.71;83.28;99921.09;4968688;28;106246;-68
2021/12/30 09:06:01;;;;;;;23.50;13.32;;;;;;;4.73;83.51;99913.88;4968697;28;105961;-68
2021/12/30 09:08:27;;;;;;;26.42;14.27;;;;;;;4.79;83.27;99917.78;4965939;28;107911;-67
2021/12/30 09:10:52;;;;;;;28.30;14.30;;;;;;;4.83;83.10;99917.34;4968153;28;105982;-66
2021/12/30 09:13:19;;;;;;;22.95;13.18;;;;;;;4.88;83.49;99922.19;4968770;28;105869;-69
2021/12/30 09:15:49;;;;;;;21.52;12.07;;;;;;;4.94;83.65;99916.38;4968408;28;106292;-69
2021/12/30 09:18:15;;;;;;;22.30;12.43;;;;;;;5.00;83.44;99921.09;4966500;28;106094;-67
2021/12/30 09:20:42;;;;;;;25.83;14.85;;;;;;;5.03;83.27;99936.66;4967827;28;106030;-67
2021/12/30 09:23:09;;;;;;;24.90;15.05;;;;;;;5.05;83.39;99933.88;4969076;28;106057;-66
2021/12/30 09:25:37;;;;;;;28.25;17.02;;;;;;;5.13;83.37;99927.88;4968290;28;106236;-65
2021/12/30 09:28:03;;;;;;;29.23;19.38;;;;;;;5.19;83.57;99929.94;4968208;28;106216;-67
2021/12/30 09:30:28;;;;;;;31.15;16.90;;;;;;;5.23;83.46;99929.50;4967652;28;105856;-66
2021/12/30 09:32:57;;;;;;;27.00;15.93;;;;;;;5.31;83.53;99917.44;4968685;28;106070;-67
2021/12/30 09:35:23;;;;;;;27.52;14.40;;;;;;;5.40;83.57;99927.13;4967936;28;106164;-67
2021/12/30 09:37:49;;;;;;;25.27;13.90;;;;;;;5.47;83.43;99928.22;4968124;28;106039;-67
2021/12/30 09:40:16;;;;;;;23.30;13.15;;;;;;;5.54;83.52;99918.72;4967070;28;106131;-67
2021/12/30 09:42:45;;;;;;;25.92;13.27;;;;;;;5.60;83.39;99927.88;4967550;28;106199;-67
2021/12/30 09:45:11;;;;;;;21.05;12.32;;;;;;;5.66;83.50;99926.47;4966368;28;106399;-68
2021/12/30 09:47:48;;;;;;;22.50;11.60;;;;;;;5.76;83.69;99925.47;4967618;28;105989;-67
2021/12/30 09:50:14;;;;;;;21.20;11.90;;;;;;;5.89;83.62;99919.84;4967613;28;106160;-67
2021/12/30 09:52:39;;;;;;;23.45;12.38;;;;;;;5.99;83.87;99927.78;4968584;28;106017;-67
2021/12/30 09:55:06;;;;;;;21.25;11.90;;;;;;;6.12;83.63;99921.31;4968156;28;106322;-67
2021/12/30 09:57:31;;;;;;;18.55;11.77;;;;;;;6.23;83.52;99914.00;4967952;28;106199;-67
2021/12/30 09:59:56;;;;;;;23.00;12.63;;;;;;;6.34;83.73;99918.25;4967637;28;105889;-67
2021/12/30 10:02:22;;;;;;;19.58;11.50;;;;;;;6.44;83.78;99915.53;4968191;28;105868;-68
2021/12/30 10:05:03;;;;;;;21.08;12.88;;;;;;;6.52;83.75;99907.66;4967792;28;106304;-68
2021/12/30 10:07:28;;;;;;;22.48;12.68;;;;;;;6.58;83.28;99912.34;4967897;28;106775;-67
2021/12/30 10:10:00;;;;;;;20.55;12.77;;;;;;;6.65;83.25;99912.56;4967185;28;106054;-66
2021/12/30 10:12:34;;;;;;;17.77;11.45;;;;;;;6.72;82.86;99918.09;4968526;28;106444;-67
2021/12/30 10:14:59;;;;;;;17.83;10.50;;;;;;;6.77;83.14;99915.84;4967927;28;106170;-66
2021/12/30 10:17:27;;;;;;;19.45;11.10;;;;;;;6.80;83.12;99915.53;4967796;28;106728;-67
2021/12/30 10:19:54;;;;;;;20.40;10.43;;;;;;;6.90;83.51;99926.03;4967543;28;106342;-67
2021/12/30 10:22:23;;;;;;;20.73;11.95;;;;;;;6.98;83.52;99918.16;4968537;28;105967;-67
2021/12/30 10:24:49;;;;;;;23.45;12.43;;;;;;;7.01;82.60;99915.22;4967736;28;106230;-67
2021/12/30 10:27:24;;;;;;;18.65;10.48;;;;;;;7.04;83.44;99912.25;4967178;28;106609;-67
2021/12/30 10:29:49;;;;;;;22.05;10.90;;;;;;;7.10;83.18;99916.91;4967503;28;106008;-66
2021/12/30 10:32:22;;;;;;;18.13;10.57;;;;;;;7.17;83.18;99926.91;4967840;28;106123;-67
2021/12/30 10:35:14;;;;;;;16.80;10.13;;;;;;;7.25;83.37;99933.09;4964121;28;105805;-66
2021/12/30 10:37:43;;;;;;;19.27;8.55;;;;;;;7.38;83.55;99935.34;4965933;28;105921;-66
2021/12/30 10:40:28;;;;;;;19.00;9.18;;;;;;;7.50;83.18;99935.88;4963735;28;106358;-67
2021/12/30 10:43:17;;;;;;;16.77;9.38;;;;;;;7.62;83.36;99941.78;4965607;28;107260;-67
2021/12/30 10:45:42;;;;;;;16.63;9.38;;;;;;;7.67;83.04;99942.13;4965885;28;106195;-67
2021/12/30 10:48:09;;;;;;;17.27;10.07;;;;;;;7.75;82.83;99946.63;4965525;28;106741;-69
2021/12/30 10:50:35;;;;;;;21.40;10.82;;;;;;;7.82;82.66;99952.13;4965626;28;106140;-68
2021/12/30 10:53:00;;;;;;;20.30;12.05;;;;;;;7.82;83.04;99952.97;4968579;28;106400;-69
2021/12/30 10:55:26;;;;;;;22.55;12.48;;;;;;;7.81;82.10;99961.91;4969393;28;106155;-69
2021/12/30 10:57:51;;;;;;;19.05;12.45;;;;;;;7.81;82.66;99959.28;4968438;28;105970;-66
2021/12/30 11:00:33;;;;;;;20.58;11.02;;;;;;;7.81;82.11;99953.97;4968757;28;105889;-66
2021/12/30 11:03:18;;;;;;;19.30;10.50;;;;;;;7.75;81.83;99957.22;4968315;28;106971;-67
2021/12/30 11:06:09;;;;;;;18.67;10.85;;;;;;;7.75;82.63;99949.28;4969134;28;106303;-66
2021/12/30 11:08:34;;;;;;;22.52;12.45;;;;;;;7.83;82.54;99945.84;4967104;28;106480;-66
2021/12/30 11:11:00;;;;;;;58.35;22.98;;;;;;;7.94;82.91;99945.56;4969333;28;105950;-64
2021/12/30 11:13:25;;;;;;;34.40;16.92;;;;;;;8.08;82.65;99942.31;4969986;28;106417;-66
2021/12/30 11:16:02;;;;;;;24.85;15.05;;;;;;;8.26;82.12;99944.03;4969377;28;106215;-65
2021/12/30 11:18:40;;;;;;;25.55;14.05;;;;;;;8.46;82.50;99940.16;4968960;28;105996;-66
2021/12/30 11:21:05;;;;;;;22.15;13.43;;;;;;;8.64;82.51;99936.53;4969592;28;106014;-65
2021/12/30 11:23:31;;;;;;;21.13;12.68;;;;;;;8.86;82.29;99944.81;4970660;28;106142;-65
2021/12/30 11:25:57;;;;;;;21.70;12.80;;;;;;;9.02;81.79;99944.84;4969519;28;106217;-67
2021/12/30 11:28:23;;;;;;;23.58;12.95;;;;;;;9.06;81.55;99951.50;4968896;28;107054;-67
2021/12/30 11:30:48;;;;;;;19.55;12.13;;;;;;;9.02;80.75;99954.63;4968536;28;105989;-67
2021/12/30 11:33:14;;;;;;;20.95;10.57;;;;;;;9.02;81.12;99942.19;4970365;28;106025;-68
2021/12/30 11:35:40;;;;;;;22.45;12.75;;;;;;;9.10;81.69;99951.97;4969785;28;106185;-67
2021/12/30 11:38:05;;;;;;;22.83;12.90;;;;;;;9.11;81.25;99954.47;4969703;28;106746;-67
2021/12/30 11:40:31;;;;;;;19.35;11.65;;;;;;;9.11;81.32;99949.16;4969828;28;106127;-67
2021/12/30 11:43:08;;;;;;;22.50;12.27;;;;;;;9.07;80.38;99939.84;4970635;28;106296;-67
2021/12/30 11:45:39;;;;;;;23.50;12.63;;;;;;;9.08;80.87;99938.03;4969701;28;105895;-67
2021/12/30 11:48:29;;;;;;;22.60;13.20;;;;;;;9.06;80.50;99946.19;4968415;28;105867;-67
2021/12/30 11:51:08;;;;;;;25.85;13.32;;;;;;;8.98;80.37;99938.22;4968136;28;106053;-69
2021/12/30 11:53:35;;;;;;;25.70;13.52;;;;;;;8.90;80.28;99947.00;4970798;28;106267;-66
2021/12/30 11:56:25;;;;;;;25.27;11.85;;;;;;;8.87;80.80;99952.66;4970041;28;106623;-67
2021/12/30 11:58:54;;;;;;;30.15;15.82;;;;;;;8.80;79.93;99954.28;4969765;28;106370;-66
2021/12/30 12:01:21;;;;;;;24.08;14.02;;;;;;;8.71;80.47;99953.47;4969426;28;105961;-66
2021/12/30 12:03:58;;;;;;;22.65;12.05;;;;;;;8.65;80.30;99954.09;4969722;28;107299;-67
2021/12/30 12:06:28;;;;;;;20.25;11.00;;;;;;;8.62;80.66;99954.44;4969589;28;106271;-68
2021/12/30 12:09:22;;;;;;;26.92;12.18;;;;;;;8.71;81.00;99948.16;4969258;28;105964;-67
2021/12/30 12:11:55;;;;;;;24.77;11.85;;;;;;;8.78;80.61;99954.44;4969389;28;105830;-67
2021/12/30 12:14:25;;;;;;;17.67;10.00;;;;;;;8.71;80.44;99958.78;4970125;28;106001;-67
2021/12/30 12:17:06;;;;;;;26.40;11.80;;;;;;;8.59;80.10;99965.38;4969575;28;106503;-67
2021/12/30 12:19:47;;;;;;;19.00;9.95;;;;;;;8.49;80.46;99967.34;4968980;28;106563;-68
2021/12/30 12:22:18;;;;;;;;;;;;;;;8.47;80.61;99962.19;4969277;28;105964;-67
2021/12/30 12:25:03;;;;;;;18.92;10.57;;;;;;;8.47;81.04;99970.16;4968384;28;106025;-68
2021/12/30 12:27:31;;;;;;;15.77;10.25;;;;;;;8.44;80.98;99967.81;4969354;28;105898;-68
2021/12/30 12:30:00;;;;;;;17.80;9.05;;;;;;;8.42;80.80;99954.69;4968398;28;107142;-67
2021/12/30 12:32:31;;;;;;;15.65;9.23;;;;;;;8.44;80.84;99958.00;4966842;28;106053;-68
2021/12/30 12:34:58;;;;;;;17.80;8.27;;;;;;;8.44;80.82;99950.03;4966118;28;106085;-68
2021/12/30 12:37:29;;;;;;;17.55;8.65;;;;;;;8.48;80.72;99953.25;4967478;28;106345;-67
2021/12/30 12:40:01;;;;;;;13.80;8.02;;;;;;;8.56;80.11;99952.44;4967034;28;106375;-67
2021/12/30 12:42:48;;;;;;;17.48;7.57;;;;;;;8.78;80.45;99954.44;4967138;28;106088;-71
2021/12/30 12:45:31;;;;;;;12.85;8.35;;;;;;;8.92;79.89;99950.31;4970219;28;106450;-71
2021/12/30 12:48:15;;;;;;;20.33;10.05;;;;;;;9.05;79.71;99957.81;4968680;28;105948;-66
2021/12/30 12:50:46;;;;;;;15.95;10.15;;;;;;;9.00;79.42;99952.16;4968229;28;106055;-67
2021/12/30 12:53:24;;;;;;;18.08;10.02;;;;;;;8.90;79.60;99946.16;4968751;28;106246;-71
2021/12/30 12:56:15;;;;;;;20.33;10.73;;;;;;;8.77;79.50;99934.19;4969340;28;106067;-65
2021/12/30 12:58:44;;;;;;;16.83;9.75;;;;;;;8.74;79.44;99926.56;4966247;28;106185;-66
2021/12/30 13:01:13;;;;;;;20.17;9.73;;;;;;;8.74;79.81;99921.25;4967529;28;106035;-64
2021/12/30 13:03:39;;;;;;;20.27;9.98;;;;;;;8.75;79.14;99941.50;4965739;28;106402;-64
2021/12/30 13:06:09;;;;;;;18.35;10.55;;;;;;;8.75;78.96;99941.50;4966721;28;106419;-64
2021/12/30 13:08:40;;;;;;;21.02;10.98;;;;;;;8.72;78.65;99943.66;4966247;28;105959;-68
2021/12/30 13:11:09;;;;;;;22.30;11.70;;;;;;;8.66;78.72;99945.16;4966112;28;107141;-65
2021/12/30 13:13:42;;;;;;;22.95;12.35;;;;;;;8.56;78.53;99940.00;4965279;28;106615;-66
2021/12/30 13:16:33;;;;;;;21.23;11.25;;;;;;;8.44;78.72;99938.59;4966583;28;105949;-68
2021/12/30 13:19:01;;;;;;;26.98;13.18;;;;;;;8.32;78.86;99954.00;4967143;28;106709;-68
2021/12/30 13:21:26;;;;;;;20.60;11.45;;;;;;;8.20;78.38;99939.34;4968659;28;106002;-66
2021/12/30 13:23:52;;;;;;;20.25;10.35;;;;;;;8.08;78.85;99947.63;4967959;28;105974;-68
2021/12/30 13:26:17;;;;;;;18.67;9.23;;;;;;;8.08;78.49;99946.81;4969237;28;106005;-67
2021/12/30 13:28:52;;;;;;;18.63;9.52;;;;;;;8.09;79.01;99941.34;4968569;28;106260;-67
2021/12/30 13:31:18;;;;;;;20.35;10.18;;;;;;;8.10;78.32;99934.19;4968315;28;105952;-66
2021/12/30 13:33:58;;;;;;;20.55;11.38;;;;;;;8.01;78.87;99924.53;4967948;28;105849;-68
2021/12/30 13:36:26;;;;;;;26.30;16.17;;;;;;;7.88;78.78;99925.00;4968579;28;105787;-67
2021/12/30 13:38:53;;;;;;;20.98;13.25;;;;;;;7.82;78.69;99926.47;4968176;28;106434;-67
2021/12/30 13:41:20;;;;;;;22.85;12.50;;;;;;;7.82;79.13;99930.91;4967761;28;106008;-68
2021/12/30 13:43:46;;;;;;;20.15;10.27;;;;;;;7.81;79.29;99930.09;4967688;28;106060;-69
2021/12/30 13:46:13;;;;;;;21.20;11.75;;;;;;;7.77;78.84;99929.56;4968577;28;105996;-68
2021/12/30 13:48:41;;;;;;;20.25;12.23;;;;;;;7.82;79.42;99942.38;4968220;28;106217;-68
2021/12/30 13:51:10;;;;;;;20.95;12.10;;;;;;;7.92;78.87;99952.88;4967884;28;106044;-68
2021/12/30 13:53:38;;;;;;;24.15;12.95;;;;;;;7.95;78.75;99957.84;4967794;28;106105;-68
2021/12/30 13:56:12;;;;;;;25.13;12.55;;;;;;;7.99;79.00;99948.56;4968810;28;105879;-67
2021/12/30 13:58:42;;;;;;;19.67;11.98;;;;;;;8.00;78.64;99946.78;4968232;28;106214;-67
2021/12/30 14:01:10;;;;;;;23.38;11.05;;;;;;;7.93;78.37;99944.75;4968073;28;106205;-67
2021/12/30 14:03:41;;;;;;;21.52;12.45;;;;;;;7.88;78.11;99959.47;4967817;28;105848;-68
2021/12/30 14:06:27;;;;;;;21.98;12.07;;;;;;;7.80;78.50;99965.56;4967846;28;106300;-68
2021/12/30 14:08:53;;;;;;;23.52;11.07;;;;;;;7.76;78.08;99948.31;4968112;28;105867;-68
2021/12/30 14:49:05;;;;;;;21.42;9.85;;;;;;;5.98;80.09;99936.66;5007041;28;106264;-65
2021/12/30 14:51:33;;;;;;;22.92;10.65;;;;;;;6.00;79.95;99939.16;5002580;28;106073;-67
2021/12/30 14:54:01;;;;;;;19.88;10.00;;;;;;;6.03;80.22;99937.06;5003079;28;105934;-67
2021/12/30 14:56:27;;;;;;;14.75;8.05;;;;;;;6.07;80.16;99935.78;4999845;28;105998;-67
2021/12/30 14:58:52;;;;;;;18.63;10.10;;;;;;;6.11;80.09;99941.63;5000006;28;107244;-67
2021/12/30 15:01:18;;;;;;;24.10;9.73;;;;;;;6.15;79.84;99953.59;5005071;28;105748;-66
2021/12/30 15:03:44;;;;;;;22.35;10.15;;;;;;;6.17;80.25;99956.91;4985421;28;106155;-66
2021/12/30 15:06:09;;;;;;;23.42;10.55;;;;;;;6.21;80.05;99946.88;4984085;28;106006;-66
2021/12/30 15:08:34;;;;;;;18.83;10.48;;;;;;;6.24;80.15;99951.84;4984530;28;106038;-65
2021/12/30 15:11:00;;;;;;;18.45;10.02;;;;;;;6.29;80.38;99956.69;4985188;28;106010;-67
2021/12/30 15:13:25;;;;;;;20.95;11.38;;;;;;;6.30;80.06;99955.72;4984233;28;106287;-66
2021/12/30 15:15:51;;;;;;;21.65;10.30;;;;;;;6.31;80.23;99963.50;4984215;28;105976;-67
2021/12/30 15:18:16;;;;;;;22.60;10.63;;;;;;;6.34;80.28;99968.53;4982372;28;106332;-67
2021/12/30 15:20:41;;;;;;;24.17;12.15;;;;;;;6.35;80.02;99964.06;4984889;28;105895;-67
2021/12/30 15:23:07;;;;;;;21.33;11.50;;;;;;;6.36;80.13;99971.84;4983446;28;106143;-66
2021/12/30 15:25:34;;;;;;;20.48;11.73;;;;;;;6.38;79.80;99974.31;4983567;28;105986;-66
2021/12/30 15:28:00;;;;;;;20.75;11.25;;;;;;;6.40;79.83;99972.38;4983149;28;105960;-66
2021/12/30 15:30:28;;;;;;;22.52;11.25;;;;;;;6.42;80.25;99962.47;4984446;28;105775;-66
2021/12/30 15:32:57;;;;;;;21.30;12.38;;;;;;;6.47;80.01;99964.69;4983763;28;106626;-66
2021/12/30 15:35:23;;;;;;;22.25;12.02;;;;;;;6.51;79.61;99958.13;4983851;28;107128;-66
2021/12/30 15:37:50;;;;;;;20.35;11.93;;;;;;;6.50;79.80;99961.72;4983456;28;106067;-67
2021/12/30 15:40:16;;;;;;;21.52;12.70;;;;;;;6.50;79.94;99959.09;4984642;28;106027;-67
2021/12/30 15:42:43;;;;;;;22.42;12.95;;;;;;;6.52;80.04;99971.19;4984273;28;106120;-66
2021/12/30 15:45:10;;;;;;;23.38;12.70;;;;;;;6.54;79.63;99965.75;4983619;28;106233;-66
2021/12/30 15:47:36;;;;;;;18.58;11.50;;;;;;;6.51;79.50;99972.16;4983151;28;106293;-67
2021/12/30 15:50:03;;;;;;;25.25;12.65;;;;;;;6.51;79.76;99976.63;4984397;28;106101;-68
2021/12/30 15:52:29;;;;;;;28.15;12.60;;;;;;;6.48;79.89;99983.06;4983163;28;106180;-66
2021/12/30 15:54:54;;;;;;;24.85;13.25;;;;;;;6.47;79.63;99988.50;4982547;28;107450;-67
2021/12/30 15:57:20;;;;;;;24.23;12.82;;;;;;;6.44;79.89;99979.88;4981129;28;107225;-66
2021/12/30 15:59:45;;;;;;;27.92;12.88;;;;;;;6.41;79.27;99982.81;4974179;28;106303;-65
2021/12/30 16:02:11;;;;;;;20.48;10.93;;;;;;;6.40;79.66;99977.66;4969775;28;105746;-66
2021/12/30 16:04:36;;;;;;;25.70;13.75;;;;;;;6.36;79.45;99982.41;4970131;28;106260;-67
2021/12/30 16:07:02;;;;;;;26.67;14.30;;;;;;;6.32;79.68;99981.03;4969490;28;105973;-67
2021/12/30 16:09:28;;;;;;;29.45;13.43;;;;;;;6.31;79.95;99973.25;4970437;28;105862;-66
2021/12/30 16:11:53;;;;;;;30.92;15.15;;;;;;;6.29;79.92;99964.63;4970078;28;106172;-67
2021/12/30 16:14:19;;;;;;;30.88;14.85;;;;;;;6.26;79.62;99963.09;4969803;28;105890;-66
2021/12/30 16:16:44;;;;;;;33.28;15.75;;;;;;;6.21;79.63;99968.84;4969954;28;106006;-67
2021/12/30 16:19:10;;;;;;;36.22;16.17;;;;;;;6.17;79.63;99958.72;4970888;28;105996;-67
2021/12/30 16:21:37;;;;;;;30.13;16.17;;;;;;;6.13;79.97;99962.66;4970317;28;106267;-68
2021/12/30 16:24:03;;;;;;;31.70;16.50;;;;;;;6.11;79.75;99957.50;4964922;28;106101;-67
2021/12/30 16:26:29;;;;;;;31.33;16.85;;;;;;;6.07;80.43;99962.25;4964272;28;106715;-68
2021/12/30 16:28:55;;;;;;;33.40;17.92;;;;;;;6.04;80.02;99962.53;4970579;28;105954;-68
2021/12/30 16:31:20;;;;;;;31.33;15.88;;;;;;;6.02;80.34;99964.50;4970272;28;105784;-68
2021/12/30 16:33:46;;;;;;;31.83;16.95;;;;;;;6.02;80.42;99972.41;4969785;28;106049;-68
2021/12/30 16:36:11;;;;;;;30.02;15.85;;;;;;;6.02;80.95;99972.41;4969854;28;106006;-66
2021/12/30 16:38:36;;;;;;;31.80;16.85;;;;;;;6.01;80.69;99983.97;4970000;28;105768;-67
2021/12/30 16:41:04;;;;;;;35.42;18.85;;;;;;;6.01;81.15;99980.50;4969962;28;106211;-67
2021/12/30 16:43:30;;;;;;;29.05;17.90;;;;;;;6.02;81.05;99980.34;4969130;28;107241;-69
2021/12/30 16:45:55;;;;;;;28.75;17.00;;;;;;;6.05;80.97;99974.75;4969406;28;106255;-71
2021/12/30 16:48:22;;;;;;;34.30;19.25;;;;;;;6.06;81.42;99970.31;4969494;28;106413;-68
2021/12/30 16:50:47;;;;;;;33.97;20.02;;;;;;;6.05;81.26;99980.06;4969903;28;105973;-73
2021/12/30 16:53:13;;;;;;;35.58;18.83;;;;;;;6.06;81.77;99976.44;4969323;28;106441;-69
2021/12/30 16:55:39;;;;;;;39.08;19.92;;;;;;;6.05;81.36;99981.88;4969341;28;106148;-68
2021/12/30 16:58:05;;;;;;;39.05;19.98;;;;;;;6.03;81.66;99984.66;4970306;28;106457;-68
2021/12/30 17:00:33;;;;;;;36.35;19.25;;;;;;;6.02;81.44;99977.72;4969629;28;106135;-67
2021/12/30 17:03:01;;;;;;;36.30;17.75;;;;;;;6.04;81.84;99972.28;4969060;28;106088;-67
2021/12/30 17:05:27;;;;;;;38.03;19.67;;;;;;;6.05;81.61;99971.31;4968707;28;106282;-66
2021/12/30 17:07:52;;;;;;;33.45;17.83;;;;;;;6.03;81.92;99975.91;4969696;28;106216;-66
2021/12/30 17:10:19;;;;;;;35.47;17.50;;;;;;;6.02;81.96;99975.06;4970200;28;107331;-68
2021/12/30 17:12:45;;;;;;;36.70;18.17;;;;;;;6.01;81.95;99968.09;4978888;28;106825;-67
2021/12/30 17:15:12;;;;;;;31.65;18.10;;;;;;;6.02;82.42;99964.50;4980468;28;105842;-68
2021/12/30 17:17:39;;;;;;;30.20;16.70;;;;;;;6.04;82.36;99972.28;4980817;28;105828;-67
2021/12/30 17:20:06;;;;;;;28.38;16.30;;;;;;;6.06;82.49;99968.50;4980955;28;106197;-68
2021/12/30 17:22:32;;;;;;;33.85;18.45;;;;;;;6.08;82.50;99977.13;4974501;28;106396;-67
2021/12/30 17:24:57;;;;;;;36.47;17.90;;;;;;;6.10;82.29;99972.53;4980820;28;106270;-68
2021/12/30 17:27:23;;;;;;;35.92;16.83;;;;;;;6.12;82.61;99980.31;4982478;28;106091;-68
2021/12/30 17:29:48;;;;;;;35.83;19.10;;;;;;;6.11;82.56;99978.66;4979174;28;106279;-69
2021/12/30 17:32:14;;;;;;;30.77;17.58;;;;;;;6.12;82.40;99987.41;4981026;28;106123;-69
2021/12/30 17:34:39;;;;;;;29.95;17.52;;;;;;;6.10;82.58;99980.44;4980448;28;106187;-68
2021/12/30 17:37:05;;;;;;;32.65;16.65;;;;;;;6.13;82.88;99981.97;4977284;28;107367;-67
2021/12/30 17:39:31;;;;;;;34.22;18.23;;;;;;;6.13;82.71;99987.28;4981437;28;106079;-66
2021/12/30 17:41:57;;;;;;;33.40;17.02;;;;;;;6.15;82.62;99981.81;4980061;28;106004;-67
2021/12/30 17:44:25;;;;;;;32.50;18.40;;;;;;;6.17;83.09;99987.81;4979689;28;106529;-67
2021/12/30 17:46:51;;;;;;;37.75;17.80;;;;;;;6.18;82.94;99978.88;4981719;28;106028;-68
2021/12/30 17:49:16;;;;;;;31.63;16.98;;;;;;;6.20;82.86;99982.22;4980375;28;106061;-66
2021/12/30 17:51:42;;;;;;;35.38;18.92;;;;;;;6.20;82.64;99984.88;4979623;28;106278;-67
2021/12/30 17:54:08;;;;;;;35.92;17.23;;;;;;;6.21;83.11;99986.53;4980619;28;106115;-68
2021/12/30 17:56:35;;;;;;;30.35;16.80;;;;;;;6.23;83.33;99979.28;4979551;28;105953;-69
2021/12/30 17:59:00;;;;;;;28.67;15.15;;;;;;;6.25;83.37;99977.34;4980795;28;106242;-67
2021/12/30 18:01:25;;;;;;;27.48;16.52;;;;;;;6.27;83.59;99978.00;4981194;28;106080;-67
2021/12/30 18:03:51;;;;;;;29.70;14.38;;;;;;;6.29;83.79;99989.28;4978606;28;105838;-65
2021/12/30 18:06:16;;;;;;;31.23;15.07;;;;;;;6.29;83.40;99991.94;4981391;28;105936;-67